»·PEaware :: N4922Z KSTS-KSNA

N4922Z :: KSTS-KSNA

FLIGHT INFORMATION

Flight Status: Arrived
Operator: Privately registered:
United States
More flights under this callsign
Pilot: William N. (15320)
Aircraft: MITSUBISHI MU-2 MARQUISE
(MU2)
More flights by this aircraft type
Origin: KSTS Sonoma Co
United States
Destination: KSNA John Wayne-Orange Co
United States
More flights between these airports :: More routes between these airports
Route: +STS PYE REBRG EHF LHS V459 SLI
File this flight plan on PilotEdge
Remarks:
Altitude:
(Current/Filed)
25,000ft
Speed:
(Current/Filed)
275kts
Departed: 10-Apr-18 01:34 PM
Arrived: 10-Apr-18 03:15 PM
Distance/Time
Traveled:
376nm/1:41
Distance/Time
To Go:
Arrived

Flight Plot

Page will automatically refresh every two minutes.

Flight plan parsing failed; only flown route is shown


Map Options




Map Legend


Flown Route
Filed Route
Departure Airport
Arrival Airport
Navaid (VOR, NDB)
Fix

Horizontal Profiles

Position Reports

Time Latitude Longitude Heading Altitude Ground
Speed
10-Apr-18 12:59 38.508249 -122.805722 1 114ft 0kts
10-Apr-18 13:00 38.508249 -122.805722 1 114ft 0kts
10-Apr-18 13:01 38.508249 -122.805722 1 114ft 0kts
10-Apr-18 13:02 38.508249 -122.805722 1 114ft 0kts
10-Apr-18 13:03 38.508250 -122.805722 3 114ft 0kts
10-Apr-18 13:04 38.508250 -122.805722 2 114ft 0kts
10-Apr-18 13:05 38.508250 -122.805722 2 114ft 0kts
10-Apr-18 13:06 38.508250 -122.805722 2 114ft 0kts
10-Apr-18 13:07 38.508250 -122.805722 2 114ft 0kts
10-Apr-18 13:08 38.508250 -122.805722 2 114ft 0kts
10-Apr-18 13:09 38.508250 -122.805722 2 114ft 0kts
10-Apr-18 13:10 38.508250 -122.805722 2 114ft 0kts
10-Apr-18 13:11 38.508250 -122.805722 2 114ft 0kts
10-Apr-18 13:12 38.508250 -122.805722 2 114ft 0kts
10-Apr-18 13:13 38.508250 -122.805722 2 114ft 0kts
10-Apr-18 13:14 38.508250 -122.805722 2 114ft 0kts
10-Apr-18 13:15 38.508250 -122.805722 2 114ft 0kts
10-Apr-18 13:16 38.508250 -122.805722 2 114ft 0kts
10-Apr-18 13:17 38.508250 -122.805722 2 114ft 0kts
10-Apr-18 13:18 38.508250 -122.805722 2 114ft 0kts
10-Apr-18 13:19 38.508250 -122.805722 2 114ft 0kts
10-Apr-18 13:20 38.508250 -122.805722 2 114ft 0kts
10-Apr-18 13:21 38.508250 -122.805722 2 114ft 0kts
10-Apr-18 13:22 38.508250 -122.805722 2 114ft 0kts
10-Apr-18 13:23 38.508250 -122.805722 2 114ft 0kts
10-Apr-18 13:24 38.508250 -122.805722 2 114ft 0kts
10-Apr-18 13:25 38.508250 -122.805722 2 114ft 0kts
10-Apr-18 13:26 38.508250 -122.805722 2 114ft 0kts
10-Apr-18 13:27 38.508250 -122.805722 2 114ft 0kts
10-Apr-18 13:28 38.508522 -122.806626 331 114ft 9kts
10-Apr-18 13:29 38.510947 -122.808498 279 114ft 5kts
10-Apr-18 13:30 38.514264 -122.810644 306 114ft 10kts
10-Apr-18 13:31 38.514522 -122.811157 301 114ft 0kts
10-Apr-18 13:32 38.514243 -122.812053 158 114ft 0kts
10-Apr-18 13:33 38.513736 -122.811786 157 114ft 43kts
10-Apr-18 13:34 38.478536 -122.792061 183 1331ft 181kts
10-Apr-18 13:35 38.430243 -122.814197 201 3600ft 185kts
10-Apr-18 13:36 38.380446 -122.823700 191 5869ft 180kts
10-Apr-18 13:37 38.331991 -122.830661 194 8411ft 168kts
10-Apr-18 13:38 38.287015 -122.837476 195 10972ft 162kts
10-Apr-18 13:39 38.243660 -122.843871 196 13510ft 156kts
10-Apr-18 13:40 38.201614 -122.850080 197 15971ft 153kts
10-Apr-18 13:41 38.160277 -122.856183 197 18355ft 151kts
10-Apr-18 13:42 38.119282 -122.862248 198 20705ft 149kts
10-Apr-18 13:43 38.078772 -122.859758 148 22914ft 204kts
10-Apr-18 13:44 38.048197 -122.795637 149 24943ft 211kts
10-Apr-18 13:45 37.999945 -122.736130 155 25008ft 271kts
10-Apr-18 13:46 37.946011 -122.654968 140 25001ft 323kts
10-Apr-18 13:47 37.890683 -122.565022 142 25009ft 331kts
10-Apr-18 13:48 37.834284 -122.476117 142 25010ft 320kts
10-Apr-18 13:49 37.779356 -122.389113 142 25020ft 317kts
10-Apr-18 13:50 37.725395 -122.302813 141 25008ft 314kts
10-Apr-18 13:51 37.671262 -122.216766 141 25009ft 313kts
10-Apr-18 13:52 37.616805 -122.131597 141 25000ft 313kts
10-Apr-18 13:53 37.563532 -122.047849 141 25144ft 311kts
10-Apr-18 13:54 37.509247 -121.962553 141 25144ft 312kts
10-Apr-18 13:55 37.455803 -121.875845 140 25145ft 315kts
10-Apr-18 13:56 37.402134 -121.790414 144 25454ft 300kts
10-Apr-18 13:57 37.346843 -121.706003 141 25079ft 319kts
10-Apr-18 13:58 37.292262 -121.619141 138 25191ft 320kts
10-Apr-18 13:59 37.236567 -121.532994 143 25209ft 315kts
10-Apr-18 14:00 37.184110 -121.441611 135 25195ft 326kts
10-Apr-18 14:01 37.128719 -121.354450 142 25139ft 317kts
10-Apr-18 14:02 37.072989 -121.268867 141 25099ft 316kts
10-Apr-18 14:03 37.018082 -121.183042 141 24994ft 318kts
10-Apr-18 14:04 36.963308 -121.097261 140 25114ft 313kts
10-Apr-18 14:05 36.908752 -121.013658 142 25074ft 314kts
10-Apr-18 14:06 36.854739 -120.931078 142 25153ft 313kts
10-Apr-18 14:07 36.799244 -120.846156 142 25185ft 313kts
10-Apr-18 14:08 36.744399 -120.760711 139 25264ft 316kts
10-Apr-18 14:09 36.688031 -120.675400 141 25097ft 319kts
10-Apr-18 14:10 36.631066 -120.590164 141 25093ft 317kts
10-Apr-18 14:11 36.574529 -120.504608 143 25024ft 316kts
10-Apr-18 14:12 36.518319 -120.420609 138 25013ft 324kts
10-Apr-18 14:13 36.472280 -120.347431 142 25072ft 316kts
10-Apr-18 14:14 36.417360 -120.261261 145 24924ft 314kts
10-Apr-18 14:15 36.359512 -120.179113 139 24992ft 317kts
10-Apr-18 14:16 36.303789 -120.095112 143 25002ft 314kts
10-Apr-18 14:17 36.249530 -120.009150 140 25075ft 316kts
10-Apr-18 14:18 36.180552 -119.917189 147 25126ft 308kts
10-Apr-18 14:19 36.123399 -119.834665 134 25214ft 319kts
10-Apr-18 14:20 36.070064 -119.746435 142 25094ft 314kts
10-Apr-18 14:21 36.022927 -119.676745 138 25020ft 321kts
10-Apr-18 14:22 35.964036 -119.596135 153 24947ft 308kts
10-Apr-18 14:23 35.898197 -119.531141 146 25024ft 313kts
10-Apr-18 14:24 35.836418 -119.458997 151 25092ft 308kts
10-Apr-18 14:25 35.769203 -119.393659 150 25142ft 308kts
10-Apr-18 14:26 35.705369 -119.326037 149 25033ft 312kts
10-Apr-18 14:27 35.638751 -119.257877 150 24936ft 312kts
10-Apr-18 14:28 35.574548 -119.190274 146 24966ft 313kts
10-Apr-18 14:29 35.507573 -119.125924 153 24458ft 306kts
10-Apr-18 14:30 35.438224 -119.071279 150 23958ft 304kts
10-Apr-18 14:31 35.372595 -119.006459 157 23305ft 298kts
10-Apr-18 14:32 35.301382 -118.955245 156 22488ft 303kts
10-Apr-18 14:33 35.224798 -118.917822 170 21213ft 297kts
10-Apr-18 14:34 35.148447 -118.879592 155 19972ft 302kts
10-Apr-18 14:35 35.076035 -118.830726 158 18872ft 294kts
10-Apr-18 14:36 35.007500 -118.786243 158 17783ft 282kts
10-Apr-18 14:37 34.941617 -118.743637 157 16690ft 278kts
10-Apr-18 14:38 34.876934 -118.701847 156 15676ft 275kts
10-Apr-18 14:39 34.811075 -118.659369 156 15002ft 264kts
10-Apr-18 14:40 34.746829 -118.618026 156 14289ft 259kts
10-Apr-18 14:41 34.683335 -118.577234 157 13576ft 256kts
10-Apr-18 14:42 34.619816 -118.540015 158 13171ft 256kts
10-Apr-18 14:43 34.552321 -118.500343 158 13168ft 280kts
10-Apr-18 14:44 34.480619 -118.458417 158 13056ft 290kts
10-Apr-18 14:45 34.407743 -118.415871 158 13055ft 292kts
10-Apr-18 14:46 34.334447 -118.373180 158 13055ft 292kts
10-Apr-18 14:47 34.266385 -118.333595 158 13051ft 292kts
10-Apr-18 14:48 34.193429 -118.291281 157 13006ft 293kts
10-Apr-18 14:49 34.121255 -118.249415 157 12311ft 289kts
10-Apr-18 14:50 34.054043 -118.210581 156 11033ft 270kts
10-Apr-18 14:51 33.987775 -118.172241 157 9705ft 261kts
10-Apr-18 14:52 33.922731 -118.160764 181 9068ft 230kts
10-Apr-18 14:53 33.864218 -118.160271 181 9071ft 200kts
10-Apr-18 14:54 33.811045 -118.159731 182 8943ft 193kts
10-Apr-18 14:55 33.754901 -118.159338 181 8002ft 227kts
10-Apr-18 14:56 33.688608 -118.156095 153 6562ft 252kts
10-Apr-18 14:57 33.678823 -118.077722 82 5161ft 249kts
10-Apr-18 14:58 33.688426 -118.005009 82 5040ft 193kts
10-Apr-18 14:59 33.696843 -117.943888 82 5051ft 190kts
10-Apr-18 15:00 33.705165 -117.879816 82 5041ft 195kts
10-Apr-18 15:01 33.740494 -117.843166 13 5044ft 185kts
10-Apr-18 15:02 33.790655 -117.827518 12 4539ft 188kts
10-Apr-18 15:03 33.840106 -117.813002 12 4040ft 173kts
10-Apr-18 15:04 33.885973 -117.799772 12 4040ft 174kts
10-Apr-18 15:05 33.934847 -117.786315 11 4037ft 183kts
10-Apr-18 15:06 33.943309 -117.746392 166 4080ft 167kts
10-Apr-18 15:07 33.896527 -117.743929 182 3796ft 172kts
10-Apr-18 15:08 33.851575 -117.757364 209 3063ft 161kts
10-Apr-18 15:09 33.815611 -117.780006 209 2978ft 139kts
10-Apr-18 15:10 33.782183 -117.801240 209 2285ft 131kts
10-Apr-18 15:11 33.752800 -117.819945 209 1536ft 104kts
10-Apr-18 15:12 33.723432 -117.838641 209 985ft 131kts
10-Apr-18 15:13 33.693300 -117.857624 207 402ft 114kts
10-Apr-18 15:14 33.671298 -117.871587 209 60ft 32kts
10-Apr-18 15:15 33.669270 -117.871781 133 60ft 0kts
10-Apr-18 15:16 33.668703 -117.871378 206 60ft 4kts
10-Apr-18 15:17 33.667362 -117.871891 132 60ft 5kts

Navigation Log

Ident Type
Flight plan parsing failed, navigation log unavailable